Time;durP1;ratioP1;P1;durP2;ratioP2;P2;SDS_P1;SDS_P2;PMS_P1;PMS_P2;Temp;Humidity;BMP_temperature;BMP_pressure;BME280_temperature;BME280_humidity;BME280_pressure;Samples;Min_cycle;Max_cycle;Signal;HPM_P1;HPM_P2
2022/06/18 00:02:12;;;;;;;;;;;24.30;57.80;;;;;;6155162;23;19931;-83
2022/06/18 00:04:39;;;;;;;;;;;24.20;58.00;;;;;;6152700;23;20353;-82
2022/06/18 00:07:07;;;;;;;;;;;24.20;58.10;;;;;;6154919;23;19924;-83
2022/06/18 00:09:41;;;;;;;;;;;24.10;58.20;;;;;;6154870;23;20360;-82
2022/06/18 00:14:56;;;;;;;;;;;24.00;59.20;;;;;;6155981;23;19987;-83
2022/06/18 00:17:23;;;;;;;;;;;23.90;59.60;;;;;;6155299;23;19925;-82
2022/06/18 00:19:50;;;;;;;;;;;23.80;60.00;;;;;;6154728;23;19975;-82
2022/06/18 00:22:18;;;;;;;;;;;23.80;59.70;;;;;;6153838;23;19940;-83
2022/06/18 00:24:45;;;;;;;;;;;23.80;60.00;;;;;;6154814;23;19921;-81
2022/06/18 00:27:13;;;;;;;;;;;23.70;57.50;;;;;;6154600;23;19927;-83
2022/06/18 00:29:40;;;;;;;;;;;23.80;55.50;;;;;;6155330;23;20302;-82
2022/06/18 00:32:07;;;;;;;;;;;23.90;55.10;;;;;;6155279;23;20304;-83
2022/06/18 00:34:34;;;;;;;;;;;24.00;55.70;;;;;;6154321;23;19921;-83
2022/06/18 00:37:03;;;;;;;;;;;24.00;55.40;;;;;;6154444;23;19948;-83
2022/06/18 00:39:30;;;;;;;;;;;24.00;56.00;;;;;;6154531;23;20293;-82
2022/06/18 00:42:01;;;;;;;;;;;24.00;56.90;;;;;;6155065;23;20330;-82
2022/06/18 00:44:33;;;;;;;;;;;24.00;56.80;;;;;;6154346;23;19928;-83
2022/06/18 00:47:08;;;;;;;;;;;24.00;55.60;;;;;;6154840;23;20400;-82
2022/06/18 00:49:54;;;;;;;;;;;24.00;56.30;;;;;;6154626;23;19924;-82
2022/06/18 00:52:23;;;;;;;;;;;23.90;57.50;;;;;;6154663;23;20419;-83
2022/06/18 00:55:01;;;;;;;;;;;23.80;60.00;;;;;;6155095;23;19932;-83
2022/06/18 00:57:49;;;;;;;;;;;23.60;61.50;;;;;;6154615;23;19925;-83
2022/06/18 01:00:34;;;;;;;;;;;23.40;62.70;;;;;;6155022;23;20304;-81
2022/06/18 01:03:01;;;;;;;;;;;23.30;62.30;;;;;;6154412;23;19928;-80
2022/06/18 01:05:34;;;;;;;;;;;23.20;63.00;;;;;;6154718;23;19975;-81
2022/06/18 01:08:03;;;;;;;;;;;23.00;63.10;;;;;;6154615;23;19920;-81
2022/06/18 01:10:31;;;;;;;;;;;23.00;63.20;;;;;;6154044;23;19920;-81
2022/06/18 01:12:59;;;;;;;;;;;23.00;63.70;;;;;;6154602;23;19924;-81
2022/06/18 01:15:34;;;;;;;;;;;22.90;63.50;;;;;;6154502;23;20285;-80
2022/06/18 01:18:01;;;;;;;;;;;22.90;64.10;;;;;;6154058;23;19932;-81
2022/06/18 01:20:27;;;;;;;;;;;22.70;63.50;;;;;;6154543;23;20001;-81
2022/06/18 01:23:13;;;;;;;;;;;22.70;63.30;;;;;;6154407;23;20005;-80
2022/06/18 01:25:40;;;;;;;;;;;22.70;64.40;;;;;;6154173;23;19921;-81
2022/06/18 01:28:09;;;;;;;;;;;22.70;64.50;;;;;;6156003;23;19971;-80
2022/06/18 01:30:38;;;;;;;;;;;22.70;64.20;;;;;;6154422;23;19969;-81
2022/06/18 01:33:09;;;;;;;;;;;22.70;64.00;;;;;;6155645;23;19987;-81
2022/06/18 01:35:37;;;;;;;;;;;22.70;64.80;;;;;;6153726;23;19920;-81
2022/06/18 01:38:04;;;;;;;;;;;22.70;64.60;;;;;;6154120;23;19925;-81
2022/06/18 01:43:47;;;;;;;;;;;22.70;64.00;;;;;;6168061;23;19936;-80
2022/06/18 01:46:14;;;;;;;;;;;22.60;64.70;;;;;;6161096;23;19924;-81
2022/06/18 01:48:42;;;;;;;;;;;22.40;65.10;;;;;;6161869;23;20329;-81
2022/06/18 01:51:21;;;;;;;;;;;22.40;65.20;;;;;;6161326;23;19920;-81
2022/06/18 01:53:51;;;;;;;;;;;22.30;65.80;;;;;;6160385;23;19975;-80
2022/06/18 01:56:28;;;;;;;;;;;22.30;65.40;;;;;;6161077;23;19947;-80
2022/06/18 01:58:58;;;;;;;;;;;22.30;65.80;;;;;;6160925;23;19924;-81
2022/06/18 02:01:26;;;;;;;;;;;22.30;65.40;;;;;;6161413;23;19924;-79
2022/06/18 02:03:54;;;;;;;;;;;22.30;65.80;;;;;;6161012;23;19944;-79
2022/06/18 02:06:21;;;;;;;;;;;22.30;65.70;;;;;;6161080;23;19920;-79
2022/06/18 02:08:48;;;;;;;;;;;22.30;65.60;;;;;;6161200;23;19971;-79
2022/06/18 02:11:16;;;;;;;;;;;22.30;65.30;;;;;;6161078;23;20336;-80
2022/06/18 02:13:48;;;;;;;;;;;22.30;65.10;;;;;;6161040;23;19921;-80
2022/06/18 02:16:16;;;;;;;;;;;22.30;64.90;;;;;;6160915;23;19974;-80
2022/06/18 02:18:45;;;;;;;;;;;22.30;64.70;;;;;;6160889;23;20400;-79
2022/06/18 02:21:12;;;;;;;;;;;22.30;65.00;;;;;;6160753;23;19920;-79
2022/06/18 02:23:39;;;;;;;;;;;22.30;65.70;;;;;;6161047;23;19924;-79
2022/06/18 02:26:07;;;;;;;;;;;22.20;66.50;;;;;;6161259;23;19924;-80
2022/06/18 02:28:40;;;;;;;;;;;22.10;66.70;;;;;;6160316;23;19921;-80
2022/06/18 02:31:10;;;;;;;;;;;22.00;67.00;;;;;;6160281;23;20257;-79
2022/06/18 02:33:50;;;;;;;;;;;21.90;67.30;;;;;;6185508;23;20451;-79
2022/06/18 02:36:21;;;;;;;;;;;21.80;67.40;;;;;;6160876;23;19931;-79
2022/06/18 02:38:48;;;;;;;;;;;21.80;68.40;;;;;;6160489;23;19978;-79
2022/06/18 02:41:15;;;;;;;;;;;21.70;67.60;;;;;;6160584;23;19920;-80
2022/06/18 02:43:43;;;;;;;;;;;21.70;67.80;;;;;;6155755;23;19927;-79
2022/06/18 02:46:12;;;;;;;;;;;21.60;67.60;;;;;;6155800;23;20198;-80
2022/06/18 02:48:39;;;;;;;;;;;21.60;68.10;;;;;;6157204;23;19980;-79
2022/06/18 02:51:06;;;;;;;;;;;21.50;68.30;;;;;;6156830;23;19920;-79
2022/06/18 02:53:33;;;;;;;;;;;21.40;68.90;;;;;;6155786;23;19920;-79
2022/06/18 02:56:02;;;;;;;;;;;21.30;70.30;;;;;;6155560;23;20345;-82
2022/06/18 02:58:30;;;;;;;;;;;21.30;69.60;;;;;;6155341;23;20308;-83
2022/06/18 03:01:02;;;;;;;;;;;21.30;69.50;;;;;;6155079;23;19921;-82
2022/06/18 03:03:31;;;;;;;;;;;21.30;69.30;;;;;;6156271;23;19924;-82
2022/06/18 03:05:58;;;;;;;;;;;21.30;69.80;;;;;;6155526;23;19931;-82
2022/06/18 03:08:26;;;;;;;;;;;21.30;70.30;;;;;;6155835;23;19967;-82
2022/06/18 03:13:39;;;;;;;;;;;21.20;70.20;;;;;;6157320;23;19948;-82
2022/06/18 03:16:08;;;;;;;;;;;21.20;70.50;;;;;;6154926;23;19927;-82
2022/06/18 03:18:35;;;;;;;;;;;21.20;70.80;;;;;;6155536;23;20249;-82
2022/06/18 03:21:15;;;;;;;;;;;21.20;70.90;;;;;;6155453;23;19924;-82
2022/06/18 03:23:43;;;;;;;;;;;21.20;71.40;;;;;;6155183;23;19921;-82
2022/06/18 03:26:10;;;;;;;;;;;21.10;70.70;;;;;;6156732;23;19971;-82
2022/06/18 03:28:37;;;;;;;;;;;21.10;70.30;;;;;;6155502;23;19921;-82
2022/06/18 03:31:04;;;;;;;;;;;21.10;71.00;;;;;;6155034;23;19924;-82
2022/06/18 03:33:31;;;;;;;;;;;21.10;70.50;;;;;;6155623;23;20304;-82
2022/06/18 03:35:58;;;;;;;;;;;21.10;70.70;;;;;;6155375;23;19928;-82
2022/06/18 03:38:27;;;;;;;;;;;21.00;71.30;;;;;;6154729;23;20380;-82
2022/06/18 03:40:54;;;;;;;;;;;21.10;70.80;;;;;;6155142;23;19924;-82
2022/06/18 03:43:22;;;;;;;;;;;21.00;71.50;;;;;;6155170;23;19920;-82
2022/06/18 03:45:51;;;;;;;;;;;21.00;71.90;;;;;;6155046;23;20329;-82
2022/06/18 03:48:25;;;;;;;;;;;20.90;71.50;;;;;;6156849;23;19925;-81
2022/06/18 03:50:52;;;;;;;;;;;20.90;71.50;;;;;;6154824;23;19975;-82
2022/06/18 03:53:18;;;;;;;;;;;20.90;71.20;;;;;;6155864;23;19924;-82
2022/06/18 03:55:48;;;;;;;;;;;20.90;71.90;;;;;;6156166;23;19951;-82
2022/06/18 03:58:15;;;;;;;;;;;20.90;71.20;;;;;;6155391;23;20020;-82
2022/06/18 04:00:42;;;;;;;;;;;20.90;71.00;;;;;;6154714;23;19920;-82
2022/06/18 04:03:08;;;;;;;;;;;20.90;70.70;;;;;;6155160;23;19924;-82
2022/06/18 04:05:37;;;;;;;;;;;21.00;70.60;;;;;;6154916;23;19921;-82
2022/06/18 04:08:04;;;;;;;;;;;21.00;70.30;;;;;;6154756;23;20265;-82
2022/06/18 04:10:31;;;;;;;;;;;21.10;70.30;;;;;;6154956;23;20004;-82
2022/06/18 04:12:58;;;;;;;;;;;21.00;70.40;;;;;;6155103;23;20297;-82
2022/06/18 04:15:25;;;;;;;;;;;21.00;71.00;;;;;;6155022;23;19988;-82
2022/06/18 04:17:52;;;;;;;;;;;21.00;71.70;;;;;;6156536;23;19991;-82
2022/06/18 04:20:21;;;;;;;;;;;21.00;71.50;;;;;;6155154;23;20247;-82
2022/06/18 04:22:48;;;;;;;;;;;21.00;71.20;;;;;;6154627;23;19953;-82
2022/06/18 04:25:15;;;;;;;;;;;21.00;71.20;;;;;;6154113;23;20020;-82
2022/06/18 04:27:42;;;;;;;;;;;21.10;71.20;;;;;;6154620;23;19921;-82
2022/06/18 04:30:14;;;;;;;;;;;21.10;71.10;;;;;;6154767;23;20217;-82
2022/06/18 04:32:41;;;;;;;;;;;21.10;69.10;;;;;;6154805;23;19921;-82
2022/06/18 04:35:09;;;;;;;;;;;21.10;68.20;;;;;;6154410;23;20263;-82
2022/06/18 04:37:36;;;;;;;;;;;21.20;67.90;;;;;;6154679;23;20286;-82
2022/06/18 04:40:03;;;;;;;;;;;21.30;67.90;;;;;;6154196;23;20323;-82
2022/06/18 04:42:30;;;;;;;;;;;21.30;67.90;;;;;;6156336;23;19971;-82
2022/06/18 04:44:57;;;;;;;;;;;21.40;68.70;;;;;;6159962;23;19920;-82
2022/06/18 04:47:24;;;;;;;;;;;21.40;69.20;;;;;;6160156;23;19920;-82
2022/06/18 04:49:51;;;;;;;;;;;21.40;69.70;;;;;;6159636;23;19920;-82
2022/06/18 04:52:18;;;;;;;;;;;21.40;70.20;;;;;;6159729;23;19967;-82
2022/06/18 04:54:44;;;;;;;;;;;21.40;70.00;;;;;;6159746;23;19920;-81
2022/06/18 04:57:11;;;;;;;;;;;21.40;69.40;;;;;;6159670;23;19920;-81
2022/06/18 04:59:41;;;;;;;;;;;21.50;68.40;;;;;;6159570;23;19970;-81
2022/06/18 05:02:13;;;;;;;;;;;21.50;67.20;;;;;;6159756;23;19927;-82
2022/06/18 05:04:40;;;;;;;;;;;21.60;65.80;;;;;;6185654;23;19920;-81
2022/06/18 05:07:07;;;;;;;;;;;21.70;65.00;;;;;;6159599;23;19982;-81
2022/06/18 05:09:34;;;;;;;;;;;21.80;64.40;;;;;;6159270;23;20311;-82
2022/06/18 05:12:00;;;;;;;;;;;21.90;64.40;;;;;;6185921;23;19948;-82
2022/06/18 05:14:27;;;;;;;;;;;22.00;65.60;;;;;;6159701;23;19920;-82
2022/06/18 05:16:54;;;;;;;;;;;22.00;66.00;;;;;;6159323;23;19924;-82
2022/06/18 05:19:25;;;;;;;;;;;22.00;67.30;;;;;;6185458;23;19971;-82
2022/06/18 05:21:52;;;;;;;;;;;22.00;68.60;;;;;;6159365;23;20264;-83
2022/06/18 05:24:19;;;;;;;;;;;22.00;68.00;;;;;;6159826;23;19987;-83
2022/06/18 05:26:48;;;;;;;;;;;22.10;68.50;;;;;;6159480;23;19920;-82
2022/06/18 05:29:15;;;;;;;;;;;22.10;66.90;;;;;;6159566;23;19924;-83
2022/06/18 05:31:42;;;;;;;;;;;22.20;65.00;;;;;;6159401;23;19920;-82
2022/06/18 05:34:09;;;;;;;;;;;22.30;63.50;;;;;;6159412;23;19924;-83
2022/06/18 05:36:37;;;;;;;;;;;22.30;62.70;;;;;;6185725;23;19924;-83
2022/06/18 05:39:05;;;;;;;;;;;22.40;62.40;;;;;;6158788;23;19924;-82
2022/06/18 05:41:32;;;;;;;;;;;22.50;61.20;;;;;;6159239;23;19936;-82
2022/06/18 05:43:59;;;;;;;;;;;22.60;59.60;;;;;;6154463;23;19927;-82
2022/06/18 05:46:26;;;;;;;;;;;22.70;59.80;;;;;;6154364;23;19927;-82
2022/06/18 05:48:53;;;;;;;;;;;22.80;60.90;;;;;;6154510;23;20245;-83
2022/06/18 05:51:20;;;;;;;;;;;22.90;60.90;;;;;;6154052;23;20007;-82
2022/06/18 05:53:46;;;;;;;;;;;23.00;59.90;;;;;;6154079;23;19931;-82
2022/06/18 05:56:14;;;;;;;;;;;23.00;60.60;;;;;;6155181;23;20400;-82
2022/06/18 05:58:40;;;;;;;;;;;23.10;60.60;;;;;;6154083;23;20235;-82
2022/06/18 06:01:07;;;;;;;;;;;23.10;60.50;;;;;;6153926;23;20364;-82
2022/06/18 06:03:34;;;;;;;;;;;23.20;61.10;;;;;;6154063;23;20008;-82
2022/06/18 06:06:01;;;;;;;;;;;23.30;60.30;;;;;;6153724;23;19952;-82
2022/06/18 06:08:28;;;;;;;;;;;23.30;60.40;;;;;;6155764;23;20246;-82
2022/06/18 06:13:40;;;;;;;;;;;23.40;59.90;;;;;;6155444;23;19925;-82
2022/06/18 06:16:07;;;;;;;;;;;23.50;60.00;;;;;;6154860;23;19983;-82
2022/06/18 06:18:34;;;;;;;;;;;23.60;60.30;;;;;;6155014;23;20297;-82
2022/06/18 06:21:01;;;;;;;;;;;23.60;60.80;;;;;;6154624;23;19921;-82
2022/06/18 06:23:28;;;;;;;;;;;23.60;60.80;;;;;;6154214;23;19927;-82
2022/06/18 06:25:55;;;;;;;;;;;23.70;60.80;;;;;;6153830;23;20238;-81
2022/06/18 06:28:24;;;;;;;;;;;23.70;61.20;;;;;;6154154;23;19932;-82
2022/06/18 06:30:52;;;;;;;;;;;23.80;61.00;;;;;;6154860;23;19948;-82
2022/06/18 06:33:18;;;;;;;;;;;23.90;60.90;;;;;;6155803;23;19967;-82
2022/06/18 06:35:46;;;;;;;;;;;24.00;60.70;;;;;;6157410;23;19921;-82
2022/06/18 06:38:13;;;;;;;;;;;24.00;60.50;;;;;;6156648;23;19925;-82
2022/06/18 06:40:41;;;;;;;;;;;24.10;60.40;;;;;;6155625;23;19928;-82
2022/06/18 06:43:10;;;;;;;;;;;24.20;60.60;;;;;;6155759;23;19924;-82
2022/06/18 06:45:37;;;;;;;;;;;24.20;60.30;;;;;;6156612;23;19971;-84
2022/06/18 06:48:04;;;;;;;;;;;24.40;60.40;;;;;;6155458;23;20090;-82
2022/06/18 06:50:31;;;;;;;;;;;24.40;60.90;;;;;;6156075;23;19976;-83
2022/06/18 06:52:58;;;;;;;;;;;24.50;62.60;;;;;;6154508;23;20337;-82
2022/06/18 06:58:16;;;;;;;;;;;24.80;61.10;;;;;;6156771;23;20329;-82
2022/06/18 07:00:47;;;;;;;;;;;25.00;58.90;;;;;;6155200;23;19925;-82
2022/06/18 07:03:15;;;;;;;;;;;25.10;57.50;;;;;;6155047;23;19948;-82
2022/06/18 07:05:43;;;;;;;;;;;25.30;56.00;;;;;;6155198;23;19920;-82
2022/06/18 07:08:11;;;;;;;;;;;25.40;55.80;;;;;;6156236;23;20356;-83
2022/06/18 07:10:37;;;;;;;;;;;25.50;55.30;;;;;;6155915;23;19928;-82
2022/06/18 07:13:05;;;;;;;;;;;25.70;55.90;;;;;;6155939;23;19928;-82
2022/06/18 07:15:34;;;;;;;;;;;25.70;55.50;;;;;;6154460;23;19976;-82
2022/06/18 07:18:03;;;;;;;;;;;25.80;55.30;;;;;;6155669;23;19924;-82
2022/06/18 07:20:30;;;;;;;;;;;25.90;54.40;;;;;;6155567;23;19924;-82
2022/06/18 07:22:58;;;;;;;;;;;25.90;53.30;;;;;;6155362;23;19921;-82
2022/06/18 07:25:25;;;;;;;;;;;26.00;53.60;;;;;;6155878;23;19924;-83
2022/06/18 07:27:53;;;;;;;;;;;26.10;52.70;;;;;;6155700;23;19924;-83
2022/06/18 07:30:20;;;;;;;;;;;26.30;52.80;;;;;;6155162;23;19925;-83
2022/06/18 07:32:48;;;;;;;;;;;26.40;51.80;;;;;;6154772;23;19925;-82
2022/06/18 07:35:22;;;;;;;;;;;26.60;51.90;;;;;;6154936;23;19962;-84
2022/06/18 07:37:50;;;;;;;;;;;26.70;49.40;;;;;;6155306;23;20338;-84
2022/06/18 07:40:17;;;;;;;;;;;26.80;49.50;;;;;;6154685;23;20249;-83
2022/06/18 07:42:45;;;;;;;;;;;26.90;49.10;;;;;;6155695;23;20437;-83
2022/06/18 07:45:15;;;;;;;;;;;26.90;48.40;;;;;;6159846;23;19986;-84
2022/06/18 07:47:42;;;;;;;;;;;27.00;48.90;;;;;;6157915;23;19927;-83
2022/06/18 07:50:09;;;;;;;;;;;27.20;49.60;;;;;;6160300;23;19944;-83
2022/06/18 07:52:35;;;;;;;;;;;27.30;48.20;;;;;;6160257;23;20206;-84
2022/06/18 07:55:03;;;;;;;;;;;27.50;47.20;;;;;;6160575;23;19928;-84
2022/06/18 07:57:30;;;;;;;;;;;27.60;46.40;;;;;;6160726;23;19924;-83
2022/06/18 07:59:57;;;;;;;;;;;27.70;45.80;;;;;;6160288;23;19920;-84
2022/06/18 08:02:24;;;;;;;;;;;27.80;45.10;;;;;;6160110;23;19920;-83
2022/06/18 08:04:51;;;;;;;;;;;27.80;44.70;;;;;;6160369;23;20028;-84
2022/06/18 08:07:18;;;;;;;;;;;27.90;46.10;;;;;;6160614;23;19920;-84
2022/06/18 08:09:45;;;;;;;;;;;28.00;44.50;;;;;;6160375;23;19928;-84
2022/06/18 08:12:12;;;;;;;;;;;28.10;45.50;;;;;;6160028;23;19920;-84
2022/06/18 08:14:38;;;;;;;;;;;28.10;45.20;;;;;;6160000;23;19920;-83
2022/06/18 08:17:06;;;;;;;;;;;28.20;46.40;;;;;;6159791;23;19928;-84
2022/06/18 08:19:33;;;;;;;;;;;28.30;44.60;;;;;;6160029;23;19947;-84
2022/06/18 08:21:59;;;;;;;;;;;28.50;44.10;;;;;;6159764;23;19935;-84
2022/06/18 08:24:26;;;;;;;;;;;28.60;43.80;;;;;;6159947;23;19920;-84
2022/06/18 08:26:54;;;;;;;;;;;28.70;43.90;;;;;;6186233;23;20260;-84
2022/06/18 08:29:23;;;;;;;;;;;28.80;43.70;;;;;;6159996;23;19924;-84
2022/06/18 08:31:50;;;;;;;;;;;29.00;43.10;;;;;;6185581;23;19924;-84
2022/06/18 08:34:17;;;;;;;;;;;29.10;42.20;;;;;;6160053;23;19951;-84
2022/06/18 08:36:51;;;;;;;;;;;29.10;43.40;;;;;;6185620;23;19928;-84
2022/06/18 08:39:18;;;;;;;;;;;29.20;43.80;;;;;;6159954;23;19928;-84
2022/06/18 08:41:51;;;;;;;;;;;29.30;42.30;;;;;;6159728;23;19939;-84
2022/06/18 08:44:29;;;;;;;;;;;29.40;41.90;;;;;;6159931;23;19920;-84
2022/06/18 08:47:13;;;;;;;;;;;29.40;41.00;;;;;;6159758;23;19920;-84
2022/06/18 08:49:53;;;;;;;;;;;29.50;41.90;;;;;;6160340;23;20256;-83
2022/06/18 08:52:29;;;;;;;;;;;29.70;41.50;;;;;;6160578;23;19920;-84
2022/06/18 08:55:18;;;;;;;;;;;29.90;39.40;;;;;;6159873;23;19931;-85
2022/06/18 08:57:51;;;;;;;;;;;30.00;38.50;;;;;;6160305;23;20328;-84
2022/06/18 09:00:31;;;;;;;;;;;30.10;36.10;;;;;;6160146;23;19967;-84
2022/06/18 09:03:06;;;;;;;;;;;30.10;36.80;;;;;;6159688;23;19920;-84
2022/06/18 09:06:01;;;;;;;;;;;30.10;36.80;;;;;;6162295;23;19928;-84
2022/06/18 09:08:28;;;;;;;;;;;30.30;35.80;;;;;;6159748;23;19952;-85
2022/06/18 09:11:07;;;;;;;;;;;30.30;37.20;;;;;;6160081;23;20253;-83
2022/06/18 09:13:36;;;;;;;;;;;30.40;36.40;;;;;;6159687;23;19920;-84
2022/06/18 09:16:05;;;;;;;;;;;30.40;36.30;;;;;;6160022;23;19920;-85
2022/06/18 09:18:37;;;;;;;;;;;30.60;36.20;;;;;;6159944;23;19921;-84
2022/06/18 09:21:07;;;;;;;;;;;30.70;37.10;;;;;;6159991;23;19931;-84
2022/06/18 09:23:39;;;;;;;;;;;30.90;36.20;;;;;;6159462;23;20319;-84
2022/06/18 09:26:09;;;;;;;;;;;31.00;36.50;;;;;;6160485;23;19920;-85
2022/06/18 09:29:05;;;;;;;;;;;31.00;35.00;;;;;;6159983;23;19921;-83
2022/06/18 09:31:35;;;;;;;;;;;31.10;35.20;;;;;;6128826;23;19920;-85
2022/06/18 09:34:28;;;;;;;;;;;31.10;35.00;;;;;;6159993;23;19924;-85
2022/06/18 09:37:02;;;;;;;;;;;31.10;35.80;;;;;;6105844;23;19927;-84
2022/06/18 09:39:39;;;;;;;;;;;31.30;35.50;;;;;;6159626;23;19971;-84
2022/06/18 09:42:20;;;;;;;;;;;31.40;35.30;;;;;;6159925;23;20297;-84
2022/06/18 09:44:53;;;;;;;;;;;31.50;35.20;;;;;;6160293;23;20395;-85
2022/06/18 09:47:26;;;;;;;;;;;31.50;34.10;;;;;;6159910;23;20249;-85
2022/06/18 09:49:53;;;;;;;;;;;31.50;34.50;;;;;;6159333;23;19931;-85
2022/06/18 09:52:29;;;;;;;;;;;31.50;34.40;;;;;;6159233;23;20269;-85
2022/06/18 09:54:58;;;;;;;;;;;31.50;36.00;;;;;;6159673;23;19987;-86
2022/06/18 09:57:27;;;;;;;;;;;31.30;34.50;;;;;;6159748;23;19924;-85
2022/06/18 10:00:03;;;;;;;;;;;31.30;36.10;;;;;;6185782;23;19920;-85
2022/06/18 10:02:31;;;;;;;;;;;31.30;36.00;;;;;;6159489;23;19928;-83
2022/06/18 10:07:46;;;;;;;;;;;31.70;37.20;;;;;;6187929;23;19920;-86
2022/06/18 10:10:18;;;;;;;;;;;31.90;37.20;;;;;;6161506;23;19975;-84
2022/06/18 10:12:48;;;;;;;;;;;32.10;36.60;;;;;;6160869;23;19924;-86
2022/06/18 10:15:17;;;;;;;;;;;32.20;34.90;;;;;;6161193;23;19972;-85
2022/06/18 10:17:59;;;;;;;;;;;32.00;34.60;;;;;;6162386;23;19986;-86
2022/06/18 10:20:34;;;;;;;;;;;32.10;35.60;;;;;;6187197;23;20003;-86
2022/06/18 10:23:25;;;;;;;;;;;32.30;35.80;;;;;;6161515;23;19971;-86
2022/06/18 10:25:57;;;;;;;;;;;32.30;34.10;;;;;;6143850;23;20233;-85
2022/06/18 10:28:43;;;;;;;;;;;32.30;33.60;;;;;;6161958;23;19924;-85
2022/06/18 10:31:23;;;;;;;;;;;32.20;34.80;;;;;;6187142;23;19924;-85
2022/06/18 10:34:09;;;;;;;;;;;32.20;35.10;;;;;;6161264;23;19924;-86
2022/06/18 10:36:41;;;;;;;;;;;32.30;34.40;;;;;;6160962;23;19921;-84
2022/06/18 10:39:23;;;;;;;;;;;32.30;34.50;;;;;;6161536;23;19974;-83
2022/06/18 10:41:56;;;;;;;;;;;32.20;34.80;;;;;;6160589;23;19920;-85
2022/06/18 10:44:23;;;;;;;;;;;32.30;34.70;;;;;;6161061;23;19924;-84
2022/06/18 10:47:01;;;;;;;;;;;32.30;34.00;;;;;;6161070;23;20000;-85
2022/06/18 10:49:30;;;;;;;;;;;32.30;34.40;;;;;;6161566;23;19975;-85
2022/06/18 10:51:58;;;;;;;;;;;32.30;34.20;;;;;;6160478;23;19931;-84
2022/06/18 10:54:33;;;;;;;;;;;32.40;34.70;;;;;;6159239;23;19947;-85
2022/06/18 10:57:01;;;;;;;;;;;32.40;33.20;;;;;;6161229;23;20238;-85
2022/06/18 10:59:29;;;;;;;;;;;32.40;34.40;;;;;;6161128;23;20244;-86
2022/06/18 11:02:00;;;;;;;;;;;32.40;33.80;;;;;;6161249;23;19952;-86
2022/06/18 11:04:31;;;;;;;;;;;32.50;33.70;;;;;;6186831;23;19925;-86
2022/06/18 11:07:05;;;;;;;;;;;32.60;33.90;;;;;;6161137;23;19924;-86
2022/06/18 11:09:33;;;;;;;;;;;32.70;32.60;;;;;;6161081;23;19975;-86
2022/06/18 11:12:02;;;;;;;;;;;32.70;33.70;;;;;;6161732;23;19920;-86
2022/06/18 11:14:32;;;;;;;;;;;32.80;33.30;;;;;;6187129;23;20395;-86
2022/06/18 11:16:59;;;;;;;;;;;32.90;34.30;;;;;;6159395;23;19982;-85
2022/06/18 11:19:30;;;;;;;;;;;33.10;34.70;;;;;;6160203;23;19920;-86
2022/06/18 11:22:07;;;;;;;;;;;33.20;34.40;;;;;;6160749;23;19979;-86
2022/06/18 11:24:34;;;;;;;;;;;33.40;33.30;;;;;;6186573;23;20241;-85
2022/06/18 11:27:04;;;;;;;;;;;33.50;32.90;;;;;;6160338;23;19928;-85
2022/06/18 11:29:40;;;;;;;;;;;33.50;32.80;;;;;;6160520;23;20395;-85
2022/06/18 11:32:09;;;;;;;;;;;33.60;32.60;;;;;;6186379;23;19920;-87
2022/06/18 11:34:37;;;;;;;;;;;33.50;32.40;;;;;;6186532;23;19986;-87
2022/06/18 11:37:24;;;;;;;;;;;33.50;32.10;;;;;;6161826;23;19931;-85
2022/06/18 11:40:02;;;;;;;;;;;33.50;34.00;;;;;;6162105;23;19927;-84
2022/06/18 11:42:28;;;;;;;;;;;33.40;33.00;;;;;;6161608;23;19924;-85
2022/06/18 11:45:10;;;;;;;;;;;33.40;32.00;;;;;;6161732;23;19920;-84
2022/06/18 11:47:43;;;;;;;;;;;33.30;32.60;;;;;;6161375;23;19927;-85
2022/06/18 11:50:16;;;;;;;;;;;33.40;33.80;;;;;;6163117;23;20317;-84
2022/06/18 11:53:02;;;;;;;;;;;33.60;32.50;;;;;;6162495;23;20321;-84
2022/06/18 11:55:31;;;;;;;;;;;33.70;32.60;;;;;;6162332;23;19951;-84
2022/06/18 11:58:04;;;;;;;;;;;33.70;33.00;;;;;;6161798;23;19924;-83
2022/06/18 12:00:36;;;;;;;;;;;33.50;32.70;;;;;;6162516;23;20411;-83
2022/06/18 12:03:06;;;;;;;;;;;33.30;33.40;;;;;;6160532;23;19924;-83
2022/06/18 12:05:40;;;;;;;;;;;33.20;33.90;;;;;;6160930;23;19955;-84
2022/06/18 12:08:07;;;;;;;;;;;33.30;33.50;;;;;;6187045;23;20313;-84
2022/06/18 12:10:46;;;;;;;;;;;33.20;33.40;;;;;;6160381;23;19924;-84
2022/06/18 12:13:22;;;;;;;;;;;33.30;34.30;;;;;;6160670;23;19955;-83
2022/06/18 12:15:57;;;;;;;;;;;33.30;33.40;;;;;;6160297;23;19920;-83
2022/06/18 12:18:29;;;;;;;;;;;33.40;33.90;;;;;;6160725;23;19920;-84
2022/06/18 12:21:01;;;;;;;;;;;33.60;34.90;;;;;;6160812;23;20336;-83
2022/06/18 12:23:45;;;;;;;;;;;33.80;33.30;;;;;;6157883;23;19924;-83
2022/06/18 12:26:32;;;;;;;;;;;33.90;32.90;;;;;;6160389;23;19924;-84
2022/06/18 12:29:17;;;;;;;;;;;34.00;31.90;;;;;;6159056;23;19955;-84
2022/06/18 12:31:47;;;;;;;;;;;34.10;32.50;;;;;;6186022;23;19924;-84
2022/06/18 12:34:14;;;;;;;;;;;34.20;32.90;;;;;;6162188;23;20330;-83
2022/06/18 12:36:41;;;;;;;;;;;34.50;31.80;;;;;;6161377;23;19921;-84
2022/06/18 12:39:17;;;;;;;;;;;34.70;32.20;;;;;;6161855;23;20254;-84
2022/06/18 12:42:01;;;;;;;;;;;34.60;31.80;;;;;;6162321;23;19942;-83
2022/06/18 12:44:34;;;;;;;;;;;34.50;32.00;;;;;;6161493;23;19928;-85
2022/06/18 12:47:13;;;;;;;;;;;34.50;32.70;;;;;;6162019;23;19966;-85
2022/06/18 12:49:47;;;;;;;;;;;34.50;32.70;;;;;;6162699;23;20309;-86
2022/06/18 12:52:21;;;;;;;;;;;34.50;32.60;;;;;;6162461;23;19932;-85
2022/06/18 12:54:47;;;;;;;;;;;34.50;32.90;;;;;;6161487;23;19924;-85
2022/06/18 12:57:17;;;;;;;;;;;34.50;32.20;;;;;;6161818;23;19924;-88
2022/06/18 12:59:50;;;;;;;;;;;34.50;32.80;;;;;;6167898;23;19978;-88
2022/06/18 13:02:32;;;;;;;;;;;34.60;33.20;;;;;;6165822;23;19920;-88
2022/06/18 13:04:59;;;;;;;;;;;34.80;33.10;;;;;;6165923;23;19921;-88
2022/06/18 13:07:51;;;;;;;;;;;34.90;31.30;;;;;;6160799;23;19920;-87
2022/06/18 13:10:17;;;;;;;;;;;34.90;32.60;;;;;;6163949;23;19924;-86
2022/06/18 13:13:03;;;;;;;;;;;35.10;32.20;;;;;;6189952;23;19928;-87
2022/06/18 13:15:40;;;;;;;;;;;35.10;31.30;;;;;;6162307;23;19924;-86
2022/06/18 13:18:12;;;;;;;;;;;35.20;31.70;;;;;;6164372;23;19952;-86
2022/06/18 13:20:44;;;;;;;;;;;35.30;31.40;;;;;;6188226;23;19920;-87
2022/06/18 13:28:50;;;;;;;;;;;35.50;31.90;;;;;;6189456;23;19931;-86
2022/06/18 13:31:27;;;;;;;;;;;35.40;31.50;;;;;;6162273;23;19921;-86
2022/06/18 13:33:54;;;;;;;;;;;35.40;32.20;;;;;;6163886;23;20241;-87
2022/06/18 13:36:47;;;;;;;;;;;35.40;31.50;;;;;;6165876;23;19967;-85
2022/06/18 13:39:33;;;;;;;;;;;35.10;30.90;;;;;;6159747;23;19967;-88
2022/06/18 13:42:08;;;;;;;;;;;34.90;31.10;;;;;;6190868;23;19962;-86
2022/06/18 13:45:04;;;;;;;;;;;34.70;32.20;;;;;;6165014;23;20256;-86
2022/06/18 13:47:50;;;;;;;;;;;34.90;32.30;;;;;;6159196;23;19982;-84
2022/06/18 13:50:20;;;;;;;;;;;35.00;31.80;;;;;;6162715;23;19983;-84
2022/06/18 13:52:47;;;;;;;;;;;35.10;31.50;;;;;;6190174;23;19920;-86
2022/06/18 13:55:15;;;;;;;;;;;35.00;31.60;;;;;;6165606;23;19920;-87
2022/06/18 13:57:49;;;;;;;;;;;35.00;31.80;;;;;;6165027;23;19932;-86
2022/06/18 14:00:24;;;;;;;;;;;35.10;31.80;;;;;;6164896;23;19942;-87
2022/06/18 14:03:06;;;;;;;;;;;35.30;32.80;;;;;;6192711;23;19951;-88
2022/06/18 14:05:42;;;;;;;;;;;35.50;32.00;;;;;;6166270;23;20296;-85
2022/06/18 14:08:28;;;;;;;;;;;35.70;30.70;;;;;;6191395;23;20256;-85
2022/06/18 14:10:59;;;;;;;;;;;35.50;30.50;;;;;;6169011;23;20414;-86
2022/06/18 14:13:26;;;;;;;;;;;35.60;31.00;;;;;;6166891;23;19921;-88
2022/06/18 14:16:03;;;;;;;;;;;35.70;31.70;;;;;;6164343;23;19929;-85
2022/06/18 14:18:31;;;;;;;;;;;35.90;31.30;;;;;;6165224;23;19924;-85
2022/06/18 14:21:00;;;;;;;;;;;35.80;30.70;;;;;;6163520;23;19920;-88
2022/06/18 14:23:32;;;;;;;;;;;35.80;30.80;;;;;;6164143;23;20399;-86
2022/06/18 14:26:04;;;;;;;;;;;36.00;31.00;;;;;;6161974;23;19920;-87
2022/06/18 14:28:33;;;;;;;;;;;36.10;30.80;;;;;;6162246;23;19944;-85
2022/06/18 14:31:24;;;;;;;;;;;36.20;30.60;;;;;;6162037;23;19928;-85
2022/06/18 14:33:53;;;;;;;;;;;36.30;30.40;;;;;;6163813;23;19920;-86
2022/06/18 14:36:22;;;;;;;;;;;36.00;29.90;;;;;;6164746;23;19967;-84
2022/06/18 14:38:51;;;;;;;;;;;35.80;30.70;;;;;;6165503;23;19944;-86
2022/06/18 14:41:37;;;;;;;;;;;35.70;30.60;;;;;;6165237;23;19944;-87
2022/06/18 14:44:23;;;;;;;;;;;35.50;30.60;;;;;;6164758;23;19995;-88
2022/06/18 14:47:05;;;;;;;;;;;35.70;31.20;;;;;;6164262;23;19928;-88
2022/06/18 14:49:37;;;;;;;;;;;36.10;30.20;;;;;;6165142;23;19924;-86
2022/06/18 14:52:09;;;;;;;;;;;36.40;29.60;;;;;;6160492;23;19970;-86
2022/06/18 14:54:42;;;;;;;;;;;36.70;29.50;;;;;;6160160;23;19943;-88
2022/06/18 14:57:18;;;;;;;;;;;36.90;30.00;;;;;;6188056;23;19921;-85
2022/06/18 14:59:51;;;;;;;;;;;37.00;29.60;;;;;;6165736;23;19927;-87
2022/06/18 15:02:26;;;;;;;;;;;37.10;29.40;;;;;;6161490;23;20400;-84